createdAt,value
2018-03-22T00:02:22.189Z,65.24
2018-03-22T00:05:45.464Z,65.15
2018-03-22T00:09:08.770Z,65.61
2018-03-22T00:12:32.041Z,65.54
2018-03-22T00:15:55.308Z,65.53
2018-03-22T00:19:18.606Z,65.81
2018-03-22T00:22:41.888Z,66.22
2018-03-22T00:26:05.177Z,66.13
2018-03-22T00:29:28.439Z,66.74
2018-03-22T00:32:51.750Z,67.21
2018-03-22T00:36:15.013Z,67.19
2018-03-22T00:39:38.297Z,67.30
2018-03-22T00:43:01.594Z,67.03
2018-03-22T00:46:24.867Z,67.44
2018-03-22T00:49:49.058Z,67.73
2018-03-22T00:53:12.386Z,67.72
2018-03-22T00:56:35.826Z,67.77
2018-03-22T00:59:59.087Z,67.57
2018-03-22T01:03:22.352Z,67.61
2018-03-22T01:06:46.413Z,68.21
2018-03-22T01:10:09.678Z,68.58
2018-03-22T01:13:32.971Z,68.66
2018-03-22T01:16:56.248Z,68.51
2018-03-22T01:20:19.528Z,68.64
2018-03-22T01:23:42.826Z,68.83
2018-03-22T01:27:06.094Z,69.04
2018-03-22T01:30:37.398Z,69.56
2018-03-22T01:34:00.743Z,69.52
2018-03-22T01:37:24.139Z,69.66
2018-03-22T01:40:47.420Z,69.68
2018-03-22T01:44:11.487Z,69.59
2018-03-22T01:47:34.811Z,68.96
2018-03-22T01:50:58.114Z,68.97
2018-03-22T01:54:21.400Z,68.91
2018-03-22T01:57:44.748Z,69.24
2018-03-22T02:01:08.023Z,69.56
2018-03-22T02:04:32.102Z,69.46
2018-03-22T02:07:55.419Z,69.73
2018-03-22T02:11:18.744Z,69.69
2018-03-22T02:14:42.026Z,69.91
2018-03-22T02:18:05.333Z,69.80
2018-03-22T02:21:28.612Z,69.46
2018-03-22T02:24:51.972Z,70.01
2018-03-22T02:28:15.260Z,69.89
2018-03-22T02:31:38.535Z,70.47
2018-03-22T02:35:01.849Z,69.83
2018-03-22T02:38:25.111Z,69.95
2018-03-22T02:41:48.389Z,70.54
2018-03-22T02:45:11.661Z,70.25
2018-03-22T02:48:34.969Z,70.31
2018-03-22T02:51:58.250Z,70.15
2018-03-22T02:55:21.538Z,70.68
2018-03-22T02:58:44.878Z,70.75
2018-03-22T03:02:08.163Z,70.17
2018-03-22T03:05:31.448Z,70.17
2018-03-22T03:08:54.740Z,70.28
2018-03-22T03:12:18.095Z,70.46
2018-03-22T03:15:41.378Z,69.75
2018-03-22T03:19:04.657Z,69.55
2018-03-22T03:22:27.937Z,69.97
2018-03-22T03:25:51.226Z,70.41
2018-03-22T03:29:14.511Z,70.23
2018-03-22T03:32:37.798Z,70.33
2018-03-22T03:36:01.071Z,70.37
2018-03-22T03:39:24.365Z,70.43
2018-03-22T03:42:47.643Z,70.25
2018-03-22T03:46:10.929Z,70.76
2018-03-22T03:49:34.214Z,70.67
2018-03-22T03:52:57.521Z,70.56
2018-03-22T03:56:20.849Z,70.68
2018-03-22T03:59:44.121Z,70.62
2018-03-22T04:03:08.215Z,70.59
2018-03-22T04:06:31.507Z,70.45
2018-03-22T04:09:54.784Z,70.26
2018-03-22T04:13:18.077Z,70.32
2018-03-22T04:16:42.160Z,69.80
2018-03-22T04:20:05.440Z,69.54
2018-03-22T04:23:28.732Z,69.59
2018-03-22T04:26:52.056Z,69.64
2018-03-22T04:30:15.325Z,69.14
2018-03-22T04:33:38.649Z,69.84
2018-03-22T04:37:01.950Z,69.94
2018-03-22T04:40:25.224Z,70.40
2018-03-22T04:43:48.510Z,70.05
2018-03-22T04:47:11.799Z,70.06
2018-03-22T04:50:35.089Z,70.59
2018-03-22T04:53:58.368Z,69.79
2018-03-22T04:57:21.643Z,70.13
2018-03-22T05:00:44.937Z,69.80
2018-03-22T05:04:08.210Z,69.46
2018-03-22T05:07:31.493Z,69.48
2018-03-22T05:10:55.798Z,69.84
2018-03-22T05:14:19.100Z,70.13
2018-03-22T05:17:42.368Z,70.27
2018-03-22T05:21:05.669Z,69.78
2018-03-22T05:24:29.809Z,70.55
2018-03-22T05:27:53.095Z,70.91
2018-03-22T05:31:16.373Z,70.88
2018-03-22T05:34:39.701Z,70.50
2018-03-22T05:38:03.829Z,70.58
2018-03-22T05:41:27.110Z,70.59
2018-03-22T05:44:50.495Z,70.06
2018-03-22T05:48:14.595Z,69.71
2018-03-22T05:51:38.655Z,69.16
2018-03-22T05:55:02.142Z,69.34
2018-03-22T05:58:25.458Z,69.18
2018-03-22T06:01:49.725Z,69.39
2018-03-22T06:05:13.016Z,68.86
2018-03-22T06:08:36.278Z,69.03
2018-03-22T06:11:59.597Z,68.57
2018-03-22T06:15:22.977Z,69.77
2018-03-22T06:18:46.299Z,69.22
2018-03-22T06:22:12.016Z,68.97
2018-03-22T06:25:36.168Z,68.13
2018-03-22T06:29:00.211Z,69.24
2018-03-22T06:32:24.076Z,67.52
2018-03-22T06:35:47.475Z,66.59
2018-03-22T06:39:12.541Z,67.96
2018-03-22T06:42:35.852Z,67.60
2018-03-22T06:45:59.193Z,64.39
2018-03-22T06:49:22.542Z,64.80
2018-03-22T06:52:45.806Z,65.36
2018-03-22T06:56:09.128Z,66.57
2018-03-22T06:59:33.956Z,65.17
2018-03-22T07:02:58.039Z,64.42
2018-03-22T07:06:22.150Z,65.52
2018-03-22T07:09:45.459Z,65.00
2018-03-22T07:13:08.955Z,64.65
2018-03-22T07:16:34.453Z,63.65
2018-03-22T07:19:58.495Z,64.72
2018-03-22T07:23:21.871Z,64.83
2018-03-22T07:26:45.218Z,64.25
2018-03-22T07:30:08.525Z,62.93
2018-03-22T07:33:31.788Z,63.57
2018-03-22T07:36:55.325Z,63.70
2018-03-22T07:40:19.360Z,64.20
2018-03-22T07:43:43.443Z,64.12
2018-03-22T07:47:06.722Z,63.68
2018-03-22T07:50:30.003Z,63.12
2018-03-22T07:53:53.281Z,63.27
2018-03-22T07:57:17.331Z,63.22
2018-03-22T08:00:40.583Z,62.45
2018-03-22T08:04:03.846Z,63.32
2018-03-22T08:07:27.896Z,63.40
2018-03-22T08:10:51.178Z,63.61
2018-03-22T08:14:15.289Z,60.86
2018-03-22T08:17:39.459Z,61.09
2018-03-22T08:21:03.675Z,60.04
2018-03-22T08:24:27.757Z,59.35
2018-03-22T08:27:51.089Z,58.35
2018-03-22T08:31:14.559Z,58.39
2018-03-22T08:34:38.614Z,57.93
2018-03-22T08:38:02.044Z,57.68
2018-03-22T08:41:26.942Z,57.32
2018-03-22T08:44:50.592Z,57.25
2018-03-22T08:48:13.940Z,56.68
2018-03-22T08:51:37.350Z,55.26
2018-03-22T08:55:00.747Z,54.61
2018-03-22T08:58:24.904Z,54.63
2018-03-22T09:01:48.959Z,54.19
2018-03-22T09:05:12.246Z,53.27
2018-03-22T09:08:35.523Z,52.93
2018-03-22T09:12:00.549Z,51.16
2018-03-22T09:15:23.909Z,51.11
2018-03-22T09:18:48.271Z,49.26
2018-03-22T09:22:12.735Z,49.27
2018-03-22T09:25:36.065Z,51.61
2018-03-22T09:28:59.323Z,49.44
2018-03-22T09:32:23.427Z,47.85
2018-03-22T09:35:47.045Z,48.78
2018-03-22T09:39:10.309Z,48.12
2018-03-22T09:42:33.599Z,46.91
2018-03-22T09:45:58.767Z,45.99
2018-03-22T09:49:25.791Z,46.74
2018-03-22T09:52:50.870Z,45.31
2018-03-22T09:56:14.165Z,43.96
2018-03-22T09:59:37.510Z,44.03
2018-03-22T10:03:00.779Z,42.07
2018-03-22T10:06:24.064Z,42.27
2018-03-22T10:09:52.018Z,41.86
2018-03-22T10:13:15.385Z,40.14
2018-03-22T10:16:38.651Z,42.35
2018-03-22T10:20:01.935Z,40.44
2018-03-22T10:23:25.205Z,40.59
2018-03-22T10:26:49.243Z,40.36
2018-03-22T10:30:12.502Z,38.48
2018-03-22T10:33:35.783Z,38.39
2018-03-22T10:36:59.161Z,37.58
2018-03-22T10:40:22.405Z,37.91
2018-03-22T10:43:46.452Z,36.21
2018-03-22T10:47:09.743Z,34.98
2018-03-22T10:50:33.008Z,35.12
2018-03-22T10:53:56.289Z,35.25
2018-03-22T10:57:19.631Z,34.64
2018-03-22T11:00:49.211Z,35.67
2018-03-22T11:04:12.516Z,34.02
2018-03-22T11:07:36.557Z,34.07
2018-03-22T11:10:59.827Z,33.83
2018-03-22T11:14:23.862Z,32.74
2018-03-22T11:17:47.151Z,32.43
2018-03-22T11:21:10.394Z,34.12
2018-03-22T11:24:34.443Z,31.60
2018-03-22T11:27:57.870Z,31.95
2018-03-22T11:31:21.122Z,31.46
2018-03-22T11:34:45.165Z,32.07
2018-03-22T11:38:08.431Z,30.86
2018-03-22T11:41:31.723Z,30.83
2018-03-22T11:44:55.006Z,29.87
2018-03-22T11:48:18.255Z,29.69
2018-03-22T11:51:42.291Z,28.64
2018-03-22T11:55:05.635Z,28.51
2018-03-22T11:58:29.657Z,29.34
2018-03-22T12:01:52.974Z,29.02
2018-03-22T12:05:16.211Z,29.36
2018-03-22T12:08:40.251Z,29.40
2018-03-22T12:12:03.525Z,29.35
2018-03-22T12:15:30.171Z,28.96
2018-03-22T12:18:53.704Z,29.17
2018-03-22T12:22:17.969Z,28.41
2018-03-22T12:25:42.599Z,28.15
2018-03-22T12:29:05.976Z,28.97
2018-03-22T12:32:31.678Z,29.12
2018-03-22T12:35:55.208Z,30.51
2018-03-22T12:39:18.662Z,31.32
2018-03-22T12:42:42.070Z,32.47
2018-03-22T12:46:06.219Z,33.44
2018-03-22T12:49:29.629Z,32.18
2018-03-22T12:52:53.022Z,33.70
2018-03-22T12:56:17.298Z,34.10
2018-03-22T12:59:40.834Z,35.13
2018-03-22T13:03:05.073Z,34.91
2018-03-22T13:06:29.249Z,35.15
2018-03-22T13:09:52.735Z,34.61
2018-03-22T13:13:16.144Z,34.62
2018-03-22T13:16:40.191Z,34.10
2018-03-22T13:20:03.460Z,35.09
2018-03-22T13:23:26.747Z,34.03
2018-03-22T13:26:50.017Z,33.37
2018-03-22T13:30:14.051Z,29.91
2018-03-22T13:33:37.321Z,30.50
2018-03-22T13:37:00.589Z,28.69
2018-03-22T13:40:24.614Z,29.03
2018-03-22T13:43:47.880Z,28.57
2018-03-22T13:47:11.907Z,28.79
2018-03-22T13:50:35.952Z,29.06
2018-03-22T13:53:59.214Z,29.83
2018-03-22T13:57:22.480Z,30.19
2018-03-22T14:00:46.526Z,30.62
2018-03-22T14:04:09.796Z,30.40
2018-03-22T14:07:33.598Z,31.00
2018-03-22T14:10:56.851Z,30.79
2018-03-22T14:14:20.874Z,30.91
2018-03-22T14:17:44.918Z,31.57
2018-03-22T14:21:08.203Z,31.04
2018-03-22T14:24:31.557Z,31.42
2018-03-22T14:27:54.801Z,31.93
2018-03-22T14:31:18.828Z,31.27
2018-03-22T14:34:42.102Z,31.17
2018-03-22T14:38:06.129Z,31.57
2018-03-22T14:41:30.153Z,31.72
2018-03-22T14:44:53.410Z,32.07
2018-03-22T14:48:17.449Z,32.28
2018-03-22T14:51:40.710Z,32.40
2018-03-22T14:55:04.738Z,33.46
2018-03-22T14:58:28.008Z,33.37
2018-03-22T15:01:52.052Z,33.70
2018-03-22T15:05:15.320Z,34.17
2018-03-22T15:08:38.581Z,34.54
2018-03-22T15:12:02.627Z,34.26
2018-03-22T15:15:25.884Z,34.64
2018-03-22T15:18:49.155Z,35.33
2018-03-22T15:22:13.242Z,35.60
2018-03-22T15:25:36.448Z,35.11
2018-03-22T15:29:00.494Z,38.62
2018-03-22T15:32:23.796Z,43.74
2018-03-22T15:35:47.137Z,48.48
2018-03-22T15:39:10.404Z,50.70
2018-03-22T15:42:33.705Z,52.10
2018-03-22T15:45:56.971Z,54.21
2018-03-22T15:49:20.256Z,54.41
2018-03-22T15:52:43.548Z,54.84
2018-03-22T15:56:07.570Z,54.10
2018-03-22T15:59:30.858Z,54.98
2018-03-22T16:02:54.110Z,56.64
2018-03-22T16:06:18.186Z,55.92
2018-03-22T16:09:41.400Z,54.93
2018-03-22T16:13:05.440Z,55.16
2018-03-22T16:16:28.694Z,54.83
2018-03-22T16:19:52.819Z,54.41
2018-03-22T16:23:16.102Z,54.26
2018-03-22T16:26:39.355Z,54.52
2018-03-22T16:30:03.383Z,52.79
2018-03-22T16:33:26.674Z,53.77
2018-03-22T16:36:49.977Z,53.24
2018-03-22T16:40:14.026Z,53.15
2018-03-22T16:43:39.798Z,51.71
2018-03-22T16:47:03.108Z,51.64
2018-03-22T16:50:26.453Z,50.61
2018-03-22T16:53:49.778Z,50.54
2018-03-22T16:57:13.121Z,51.48
2018-03-22T17:00:37.206Z,50.46
2018-03-22T17:04:01.338Z,49.88
2018-03-22T17:07:24.669Z,49.50
2018-03-22T17:10:48.063Z,49.86
2018-03-22T17:14:12.119Z,49.88
2018-03-22T17:17:35.477Z,50.19
2018-03-22T17:20:59.255Z,50.98
2018-03-22T17:24:32.177Z,50.22
2018-03-22T17:27:55.642Z,50.35
2018-03-22T17:31:18.997Z,50.69
2018-03-22T17:34:42.501Z,50.18
2018-03-22T17:38:05.856Z,49.75
2018-03-22T17:41:29.507Z,49.65
2018-03-22T17:44:52.841Z,49.75
2018-03-22T17:48:17.780Z,50.43
2018-03-22T17:51:41.104Z,50.05
2018-03-22T17:55:04.426Z,49.50
2018-03-22T17:58:27.776Z,49.78
2018-03-22T18:01:51.125Z,50.22
2018-03-22T18:05:14.470Z,50.42
2018-03-22T18:08:42.992Z,50.77
2018-03-22T18:12:06.268Z,51.01
2018-03-22T18:15:29.564Z,51.23
2018-03-22T18:18:54.565Z,51.38
2018-03-22T18:22:17.946Z,51.97
2018-03-22T18:25:43.140Z,52.64
2018-03-22T18:29:06.475Z,52.78
2018-03-22T18:32:29.773Z,53.05
2018-03-22T18:35:53.126Z,53.72
2018-03-22T18:39:16.479Z,52.29
2018-03-22T18:42:39.782Z,52.85
2018-03-22T18:46:04.312Z,53.48
2018-03-22T18:49:27.668Z,53.69
2018-03-22T18:52:51.707Z,53.85
2018-03-22T18:56:15.006Z,54.74
2018-03-22T18:59:38.274Z,55.01
2018-03-22T19:03:01.591Z,55.15
2018-03-22T19:06:24.910Z,54.82
2018-03-22T19:09:48.198Z,54.91
2018-03-22T19:13:11.803Z,56.22
2018-03-22T19:16:35.247Z,56.47
2018-03-22T19:19:58.565Z,57.46
2018-03-22T19:23:21.848Z,55.83
2018-03-22T19:26:45.131Z,56.79
2018-03-22T19:30:08.425Z,56.70
2018-03-22T19:33:31.791Z,56.39
2018-03-22T19:36:55.106Z,56.89
2018-03-22T19:40:19.137Z,57.71
2018-03-22T19:43:42.445Z,58.75
2018-03-22T19:47:05.775Z,60.72
2018-03-22T19:50:29.898Z,61.71
2018-03-22T19:53:53.237Z,63.68
2018-03-22T19:57:16.540Z,62.41
2018-03-22T20:00:39.902Z,63.48
2018-03-22T20:04:03.963Z,64.49
2018-03-22T20:07:27.351Z,65.21
2018-03-22T20:10:51.860Z,66.18
2018-03-22T20:14:17.344Z,68.04
2018-03-22T20:17:41.439Z,68.89
2018-03-22T20:21:09.599Z,70.19
2018-03-22T20:24:33.007Z,70.29
2018-03-22T20:27:58.055Z,70.92
2018-03-22T20:31:22.144Z,72.53
2018-03-22T20:34:45.502Z,73.61
2018-03-22T20:38:08.816Z,73.61
2018-03-22T20:41:32.160Z,74.25
2018-03-22T20:44:55.448Z,74.41
2018-03-22T20:48:18.709Z,74.16
2018-03-22T20:51:42.052Z,73.62
2018-03-22T20:55:06.159Z,74.43
2018-03-22T20:58:29.480Z,74.40
2018-03-22T21:01:52.804Z,74.73
2018-03-22T21:05:16.132Z,73.94
2018-03-22T21:08:40.251Z,74.33
2018-03-22T21:12:03.745Z,72.38
2018-03-22T21:15:27.039Z,71.75
2018-03-22T21:18:50.321Z,71.01
2018-03-22T21:22:13.627Z,71.77
2018-03-22T21:25:36.985Z,71.97
2018-03-22T21:29:00.338Z,70.95
2018-03-22T21:32:23.671Z,71.67
2018-03-22T21:35:47.018Z,72.75
2018-03-22T21:39:10.320Z,73.55
2018-03-22T21:42:33.602Z,71.59
2018-03-22T21:45:56.891Z,72.04
2018-03-22T21:49:20.313Z,69.74
2018-03-22T21:52:57.285Z,70.89
2018-03-22T21:56:20.618Z,71.90
2018-03-22T21:59:43.982Z,72.89
2018-03-22T22:03:07.251Z,72.99
2018-03-22T22:06:30.554Z,73.56
2018-03-22T22:09:53.850Z,73.17
2018-03-22T22:13:17.271Z,73.22
2018-03-22T22:16:40.687Z,73.29
2018-03-22T22:20:04.052Z,73.24
2018-03-22T22:23:27.380Z,72.02
2018-03-22T22:26:51.660Z,73.32
2018-03-22T22:30:14.992Z,73.87
2018-03-22T22:33:38.463Z,73.26
2018-03-22T22:37:03.491Z,72.90
2018-03-22T22:40:27.608Z,72.45
2018-03-22T22:43:50.898Z,72.41
2018-03-22T22:47:14.253Z,72.33
2018-03-22T22:50:37.521Z,70.94
2018-03-22T22:54:00.915Z,72.06
2018-03-22T22:57:24.255Z,71.37
2018-03-22T23:00:47.599Z,70.92
2018-03-22T23:04:10.918Z,71.97
2018-03-22T23:07:34.968Z,71.78
2018-03-22T23:10:58.245Z,71.90
2018-03-22T23:14:21.522Z,71.45
2018-03-22T23:17:45.601Z,72.74
2018-03-22T23:21:08.915Z,72.27
2018-03-22T23:24:32.241Z,71.70
2018-03-22T23:27:56.336Z,72.31
2018-03-22T23:31:20.353Z,72.86
2018-03-22T23:34:43.654Z,72.54
2018-03-22T23:38:06.925Z,73.42
2018-03-22T23:41:30.197Z,74.63
2018-03-22T23:44:53.524Z,74.87
2018-03-22T23:48:16.839Z,74.58
2018-03-22T23:51:40.142Z,72.67
2018-03-22T23:55:03.423Z,73.55
2018-03-22T23:58:26.713Z,72.80
